Time;durP1;ratioP1;P1;durP2;ratioP2;P2;SDS_P1;SDS_P2;PMS_P1;PMS_P2;Temp;Humidity;BMP_temperature;BMP_pressure;BME280_temperature;BME280_humidity;BME280_pressure;Samples;Min_cycle;Max_cycle;Signal;HPM_P1;HPM_P2
2021/10/15 00:02:15;;;;;;;10.30;4.30;;;8.10;99.90;;;;;;4993548;28;20038;-78
2021/10/15 00:04:41;;;;;;;9.90;4.05;;;8.00;99.90;;;;;;4994589;28;20027;-82
2021/10/15 00:07:07;;;;;;;8.32;4.38;;;8.10;99.90;;;;;;4987853;28;20558;-78
2021/10/15 00:09:32;;;;;;;6.05;4.00;;;8.10;99.90;;;;;;4974240;28;20038;-78
2021/10/15 00:11:58;;;;;;;6.25;3.50;;;8.10;99.90;;;;;;4985035;28;20030;-78
2021/10/15 00:14:24;;;;;;;5.03;3.30;;;8.00;99.90;;;;;;4994533;28;20026;-78
2021/10/15 00:16:50;;;;;;;9.27;3.65;;;8.00;99.90;;;;;;4993596;28;20023;-79
2021/10/15 00:19:15;;;;;;;7.45;3.50;;;8.00;99.90;;;;;;4977706;28;20034;-78
2021/10/15 00:21:41;;;;;;;5.10;3.40;;;8.00;99.90;;;;;;4978917;28;20042;-80
2021/10/15 00:24:07;;;;;;;5.82;3.50;;;7.90;99.80;;;;;;4978296;28;20034;-78
2021/10/15 00:26:32;;;;;;;6.15;3.45;;;7.80;99.90;;;;;;4978934;28;20023;-78
2021/10/15 00:28:58;;;;;;;6.15;3.15;;;7.70;99.90;;;;;;4979155;28;20027;-78
2021/10/15 00:31:24;;;;;;;4.85;3.13;;;7.70;99.90;;;;;;4979849;28;20527;-78
2021/10/15 00:33:49;;;;;;;5.38;3.30;;;7.70;99.90;;;;;;4976663;28;20026;-78
2021/10/15 00:36:15;;;;;;;4.65;3.15;;;7.70;99.90;;;;;;4977157;28;20085;-78
2021/10/15 00:38:40;;;;;;;5.82;3.25;;;7.70;99.80;;;;;;4978482;28;20022;-77
2021/10/15 00:41:08;;;;;;;6.85;3.28;;;7.70;99.80;;;;;;4976981;28;20251;-78
2021/10/15 00:43:33;;;;;;;4.65;2.95;;;7.60;99.90;;;;;;4977538;28;20118;-78
2021/10/15 00:45:59;;;;;;;4.70;3.28;;;7.70;99.90;;;;;;4987463;28;20114;-78
2021/10/15 00:48:25;;;;;;;5.15;3.25;;;7.60;99.90;;;;;;4993648;28;20384;-78
2021/10/15 00:50:51;;;;;;;7.45;3.20;;;7.60;99.90;;;;;;4992608;28;20030;-79
2021/10/15 00:53:17;;;;;;;6.50;3.25;;;7.70;99.90;;;;;;4992951;28;20037;-78
2021/10/15 00:55:44;;;;;;;7.13;3.22;;;7.70;99.90;;;;;;4993435;28;20023;-79
2021/10/15 00:58:09;;;;;;;8.38;3.05;;;7.70;99.90;;;;;;4976524;28;20066;-78
2021/10/15 01:00:35;;;;;;;9.40;4.30;;;7.70;99.80;;;;;;4993147;28;20077;-78
2021/10/15 01:03:03;;;;;;;6.82;3.65;;;7.70;99.90;;;;;;4992997;28;20046;-78
2021/10/15 01:05:29;;;;;;;6.38;3.88;;;7.80;99.90;;;;;;4977959;28;20149;-78
2021/10/15 01:07:56;;;;;;;7.20;4.07;;;7.90;99.90;;;;;;4977634;28;20428;-78
2021/10/15 01:10:24;;;;;;;6.88;3.55;;;7.90;99.90;;;;;;4977201;28;20062;-78
2021/10/15 01:12:50;;;;;;;5.97;3.50;;;8.00;99.90;;;;;;4992713;28;20027;-79
2021/10/15 01:15:16;;;;;;;7.35;3.80;;;8.00;99.90;;;;;;4992957;28;20029;-78
2021/10/15 01:17:42;;;;;;;7.15;3.55;;;7.90;99.90;;;;;;4993095;28;20031;-78
2021/10/15 01:20:08;;;;;;;5.32;3.53;;;7.90;99.90;;;;;;5004403;28;20085;-79
2021/10/15 01:22:34;;;;;;;6.88;3.60;;;7.90;99.90;;;;;;4996263;28;20038;-78
2021/10/15 01:25:00;;;;;;;5.95;3.45;;;7.80;99.90;;;;;;4995475;28;20030;-78
2021/10/15 01:27:26;;;;;;;8.10;3.30;;;7.80;99.90;;;;;;4996149;28;20499;-78
2021/10/15 01:29:52;;;;;;;4.22;2.88;;;7.70;99.90;;;;;;4995213;28;20049;-79
2021/10/15 01:32:19;;;;;;;5.80;3.33;;;7.70;99.60;;;;;;4995902;28;20030;-77
2021/10/15 01:34:46;;;;;;;6.85;3.63;;;7.70;99.90;;;;;;4995747;28;20119;-78
2021/10/15 01:37:13;;;;;;;6.72;3.85;;;7.60;99.90;;;;;;4977271;28;20125;-78
2021/10/15 01:39:39;;;;;;;10.85;5.00;;;7.60;99.90;;;;;;4977399;28;20044;-78
2021/10/15 01:42:05;;;;;;;7.45;4.45;;;7.70;99.90;;;;;;4976907;28;20083;-78
2021/10/15 01:44:31;;;;;;;7.80;4.00;;;7.60;99.90;;;;;;4976358;28;20030;-78
2021/10/15 01:46:56;;;;;;;6.60;3.70;;;7.60;99.90;;;;;;4975812;28;20035;-78
2021/10/15 01:49:22;;;;;;;7.78;3.53;;;7.60;99.90;;;;;;4976271;28;20034;-78
2021/10/15 01:51:48;;;;;;;7.63;3.53;;;7.60;99.90;;;;;;4976023;28;20548;-79
2021/10/15 01:54:13;;;;;;;6.78;4.22;;;7.60;99.90;;;;;;4976858;28;20074;-78
2021/10/15 01:56:39;;;;;;;8.98;3.80;;;7.60;99.90;;;;;;4976224;28;20037;-78
2021/10/15 01:59:06;;;;;;;6.15;3.42;;;7.50;99.80;;;;;;4975774;28;20023;-78
2021/10/15 02:01:31;;;;;;;8.05;3.97;;;7.50;99.90;;;;;;4975774;28;20034;-78
2021/10/15 02:03:57;;;;;;;7.00;3.60;;;7.50;99.90;;;;;;4975422;28;20053;-78
2021/10/15 02:06:23;;;;;;;8.68;3.78;;;7.40;99.90;;;;;;4975681;28;20066;-77
2021/10/15 02:08:48;;;;;;;5.90;3.28;;;7.30;99.90;;;;;;4976353;28;20027;-80
2021/10/15 02:11:15;;;;;;;6.38;3.35;;;7.40;99.90;;;;;;4976764;28;20023;-77
2021/10/15 02:13:41;;;;;;;7.78;3.42;;;7.30;99.90;;;;;;4975633;28;20027;-77
2021/10/15 02:16:06;;;;;;;7.03;3.50;;;7.20;99.90;;;;;;4976416;28;20035;-77
2021/10/15 02:18:32;;;;;;;6.93;3.80;;;7.20;99.90;;;;;;4975601;28;20023;-77
2021/10/15 02:20:59;;;;;;;7.00;3.67;;;7.20;99.90;;;;;;4975875;28;20129;-78
2021/10/15 02:23:25;;;;;;;6.53;3.65;;;7.30;99.90;;;;;;4975730;28;20038;-77
2021/10/15 02:25:51;;;;;;;6.22;3.85;;;7.30;99.90;;;;;;4975200;28;20027;-81
2021/10/15 02:28:16;;;;;;;5.47;3.78;;;7.20;99.90;;;;;;4975080;28;20069;-78
2021/10/15 02:30:42;;;;;;;5.88;3.83;;;7.20;99.90;;;;;;4975962;28;20037;-78
2021/10/15 02:33:08;;;;;;;5.20;3.45;;;7.20;99.90;;;;;;4975480;28;20452;-78
2021/10/15 02:35:34;;;;;;;5.68;4.03;;;7.20;99.90;;;;;;4977861;28;20085;-77
2021/10/15 02:38:02;;;;;;;6.82;3.85;;;7.20;99.90;;;;;;4994918;28;20414;-78
2021/10/15 02:40:30;;;;;;;7.93;4.05;;;7.10;99.90;;;;;;4993744;28;20121;-77
2021/10/15 02:42:57;;;;;;;8.68;4.82;;;7.20;99.90;;;;;;4993223;28;20069;-78
2021/10/15 02:45:23;;;;;;;12.45;5.55;;;7.20;99.90;;;;;;4994888;28;20117;-78
2021/10/15 02:47:49;;;;;;;10.63;4.43;;;7.20;99.90;;;;;;4994540;28;20026;-77
2021/10/15 02:50:15;;;;;;;6.13;3.97;;;7.20;99.90;;;;;;4986149;28;20042;-78
2021/10/15 02:52:40;;;;;;;7.10;4.30;;;7.20;99.90;;;;;;4975155;28;20034;-77
2021/10/15 02:55:07;;;;;;;7.68;3.45;;;7.30;99.90;;;;;;4974438;28;20125;-79
2021/10/15 02:57:33;;;;;;;5.35;3.28;;;7.20;99.90;;;;;;4976229;28;20486;-78
2021/10/15 02:59:58;;;;;;;5.88;3.60;;;7.20;99.90;;;;;;4974350;28;20031;-79
2021/10/15 03:02:24;;;;;;;4.95;3.17;;;7.20;99.90;;;;;;4975696;28;20037;-78
2021/10/15 03:04:50;;;;;;;7.20;3.55;;;7.20;99.90;;;;;;4974900;28;20027;-78
2021/10/15 03:07:15;;;;;;;6.07;3.33;;;7.20;99.90;;;;;;4974804;28;20031;-78
2021/10/15 03:09:41;;;;;;;6.50;3.50;;;7.20;99.90;;;;;;4974976;28;20551;-78
2021/10/15 03:12:07;;;;;;;6.07;3.20;;;7.20;99.90;;;;;;4975321;28;20034;-78
2021/10/15 03:14:33;;;;;;;9.63;4.18;;;7.10;99.90;;;;;;4975822;28;20050;-78
2021/10/15 03:16:59;;;;;;;5.20;3.65;;;7.10;99.90;;;;;;4975670;28;20415;-79
2021/10/15 03:19:25;;;;;;;8.20;3.97;;;7.00;99.90;;;;;;4975797;28;20034;-78
2021/10/15 03:21:51;;;;;;;4.60;3.38;;;7.00;99.90;;;;;;4978172;28;20065;-78
2021/10/15 03:24:16;;;;;;;6.40;3.60;;;7.00;99.90;;;;;;4993541;28;20490;-78
2021/10/15 03:26:42;;;;;;;6.63;3.85;;;7.00;99.90;;;;;;4981948;28;20031;-77
2021/10/15 03:29:07;;;;;;;10.73;5.07;;;6.90;99.90;;;;;;4974397;28;20178;-77
2021/10/15 03:31:33;;;;;;;6.55;3.92;;;7.00;99.90;;;;;;4974184;28;20034;-77
2021/10/15 03:33:59;;;;;;;9.20;3.93;;;7.00;99.90;;;;;;4974148;28;20054;-79
2021/10/15 03:36:25;;;;;;;6.37;3.80;;;7.10;99.90;;;;;;4976724;28;20120;-77
2021/10/15 03:38:50;;;;;;;8.47;4.33;;;7.10;99.90;;;;;;4974367;28;20033;-78
2021/10/15 03:41:16;;;;;;;10.53;3.77;;;7.00;99.90;;;;;;4973738;28;20039;-78
2021/10/15 03:43:42;;;;;;;7.80;4.20;;;7.00;99.90;;;;;;4974079;28;20050;-78
2021/10/15 03:46:07;;;;;;;6.87;4.10;;;7.00;99.90;;;;;;4974811;28;20035;-79
2021/10/15 03:48:33;;;;;;;5.47;3.60;;;7.00;99.90;;;;;;4975380;28;20031;-78
2021/10/15 03:50:59;;;;;;;7.30;3.72;;;7.00;99.90;;;;;;4973893;28;20420;-79
2021/10/15 03:53:24;;;;;;;6.23;4.00;;;7.00;99.90;;;;;;4974471;28;20027;-78
2021/10/15 03:55:50;;;;;;;8.53;3.70;;;7.00;99.90;;;;;;4985486;28;20038;-78
2021/10/15 03:58:15;;;;;;;7.20;3.77;;;7.00;99.90;;;;;;4994291;28;20554;-78
2021/10/15 04:00:41;;;;;;;6.85;3.78;;;7.00;99.90;;;;;;4993510;28;20471;-78
2021/10/15 04:03:07;;;;;;;8.32;3.63;;;7.00;99.90;;;;;;4994088;28;20081;-78
2021/10/15 04:05:32;;;;;;;5.50;3.80;;;7.00;99.90;;;;;;4993310;28;20062;-78
2021/10/15 04:07:58;;;;;;;6.83;4.03;;;7.00;99.90;;;;;;4993068;28;20117;-81
2021/10/15 04:10:24;;;;;;;8.00;4.25;;;7.00;99.90;;;;;;4993567;28;20030;-77
2021/10/15 04:12:50;;;;;;;7.97;4.63;;;7.00;99.90;;;;;;4993800;28;20084;-78
2021/10/15 04:15:15;;;;;;;6.70;3.72;;;7.10;99.90;;;;;;4993236;28;20447;-77
2021/10/15 04:17:41;;;;;;;7.73;4.27;;;7.10;99.90;;;;;;4993789;28;20027;-78
2021/10/15 04:20:08;;;;;;;7.80;4.20;;;7.10;99.90;;;;;;4989379;28;20042;-78
2021/10/15 04:22:34;;;;;;;6.90;4.40;;;7.10;99.90;;;;;;4974039;28;20034;-78
2021/10/15 04:25:00;;;;;;;8.97;4.47;;;7.10;99.90;;;;;;4992067;28;20022;-79
2021/10/15 04:27:25;;;;;;;8.63;4.57;;;7.10;99.90;;;;;;4994484;28;20125;-78
2021/10/15 04:29:51;;;;;;;7.88;4.53;;;7.00;99.90;;;;;;4994671;28;20077;-78
2021/10/15 04:32:17;;;;;;;9.63;5.00;;;7.10;99.90;;;;;;4992536;28;20026;-78
2021/10/15 04:34:42;;;;;;;8.77;4.43;;;7.00;99.90;;;;;;4994269;28;20368;-77
2021/10/15 04:37:08;;;;;;;7.63;4.47;;;7.00;99.90;;;;;;4993992;28;20526;-78
2021/10/15 04:39:34;;;;;;;11.50;4.68;;;7.00;99.90;;;;;;4993386;28;20027;-78
2021/10/15 04:41:59;;;;;;;7.63;4.33;;;6.90;99.90;;;;;;4993031;28;20061;-80
2021/10/15 04:44:25;;;;;;;9.17;4.70;;;6.90;99.90;;;;;;4993295;28;20030;-78
2021/10/15 04:46:50;;;;;;;9.23;4.60;;;6.90;99.90;;;;;;4993017;28;20030;-78
2021/10/15 04:49:18;;;;;;;7.80;4.77;;;6.90;99.90;;;;;;4992662;28;20279;-78
2021/10/15 04:51:44;;;;;;;7.93;4.20;;;6.80;99.90;;;;;;4975343;28;20027;-78
2021/10/15 04:54:09;;;;;;;10.07;4.83;;;6.90;99.90;;;;;;4989511;28;20033;-78
2021/10/15 04:56:35;;;;;;;7.80;3.97;;;6.80;99.90;;;;;;4974243;28;20371;-78
2021/10/15 04:59:01;;;;;;;6.23;4.00;;;6.80;99.90;;;;;;4974442;28;20035;-80
2021/10/15 05:01:26;;;;;;;10.67;4.80;;;6.80;99.90;;;;;;4973799;28;20052;-78
2021/10/15 05:03:52;;;;;;;9.50;4.87;;;6.80;99.90;;;;;;4976377;28;20068;-78
2021/10/15 05:06:18;;;;;;;14.07;5.60;;;6.80;99.90;;;;;;4977129;28;20050;-79
2021/10/15 05:09:02;;;;;;;12.10;4.60;;;6.80;99.90;;;;;;4996035;28;20026;-78
2021/10/15 05:11:28;;;;;;;8.57;4.63;;;6.80;99.90;;;;;;4997599;28;20034;-78
2021/10/15 05:13:54;;;;;;;12.00;5.17;;;6.80;99.90;;;;;;4988304;28;20054;-78
2021/10/15 05:16:20;;;;;;;8.73;5.23;;;6.90;99.90;;;;;;4976374;28;20043;-78
2021/10/15 05:18:46;;;;;;;8.93;5.13;;;6.90;99.90;;;;;;4984888;28;20052;-79
2021/10/15 05:21:11;;;;;;;9.77;5.57;;;6.90;99.90;;;;;;4988060;28;20030;-77
2021/10/15 05:23:37;;;;;;;11.23;5.47;;;6.90;99.90;;;;;;4990854;28;20396;-77
2021/10/15 05:26:03;;;;;;;9.23;5.45;;;6.90;99.90;;;;;;5003113;28;20062;-78
2021/10/15 05:28:29;;;;;;;8.90;5.00;;;6.80;99.90;;;;;;4992295;28;20113;-79
2021/10/15 05:30:56;;;;;;;8.23;5.30;;;6.80;99.90;;;;;;4976137;28;20497;-79
2021/10/15 05:33:22;;;;;;;9.80;5.63;;;6.90;99.90;;;;;;4981229;28;20081;-79
2021/10/15 05:35:48;;;;;;;10.07;5.27;;;6.90;99.90;;;;;;4989709;28;20117;-79
2021/10/15 05:38:14;;;;;;;9.37;5.07;;;6.90;99.90;;;;;;5011398;28;20395;-79
2021/10/15 05:40:39;;;;;;;9.10;5.10;;;6.90;99.90;;;;;;4995052;28;20030;-79
2021/10/15 05:43:05;;;;;;;9.30;4.73;;;6.80;99.90;;;;;;4995514;28;20026;-80
2021/10/15 05:45:31;;;;;;;9.87;5.73;;;6.70;99.90;;;;;;4996938;28;20057;-79
2021/10/15 05:47:56;;;;;;;10.57;5.17;;;6.70;99.90;;;;;;5011679;28;20034;-79
2021/10/15 05:50:24;;;;;;;11.40;5.30;;;6.80;99.90;;;;;;4996176;28;20041;-79
2021/10/15 05:52:50;;;;;;;8.77;4.80;;;6.70;99.90;;;;;;4995317;28;20027;-79
2021/10/15 05:55:34;;;;;;;10.83;5.60;;;6.70;99.90;;;;;;4993984;28;20027;-78
2021/10/15 06:00:55;;;;;;;11.60;5.57;;;6.80;99.90;;;;;;4939448;28;20600;-78
2021/10/15 06:03:23;;;;;;;11.17;5.50;;;6.80;99.90;;;;;;4977059;28;20111;-78
2021/10/15 06:14:33;;;;;;;10.50;5.83;;;6.80;99.90;;;;;;4946517;28;20078;-79
2021/10/15 06:17:11;;;;;;;9.40;5.63;;;6.80;99.90;;;;;;4986184;28;20023;-79
2021/10/15 06:22:32;;;;;;;9.52;5.47;;;6.80;99.90;;;;;;4969542;28;20116;-79
2021/10/15 06:24:58;;;;;;;9.17;5.70;;;6.80;99.90;;;;;;4983655;28;20442;-79
2021/10/15 06:27:25;;;;;;;9.43;5.50;;;6.80;99.90;;;;;;4984536;28;20027;-79
2021/10/15 06:29:51;;;;;;;9.90;5.80;;;6.90;99.90;;;;;;4975297;28;20034;-78
2021/10/15 06:32:18;;;;;;;9.53;6.10;;;6.90;99.90;;;;;;4978028;28;20034;-79
2021/10/15 06:34:44;;;;;;;10.83;5.77;;;6.90;99.90;;;;;;5004143;28;20062;-79
2021/10/15 06:37:09;;;;;;;10.23;5.87;;;6.90;99.90;;;;;;4994162;28;20062;-78
2021/10/15 06:39:35;;;;;;;9.43;5.47;;;6.90;99.90;;;;;;4994109;28;20114;-79
2021/10/15 06:42:01;;;;;;;14.57;6.13;;;6.90;99.90;;;;;;4993078;28;20116;-78
2021/10/15 06:44:27;;;;;;;13.30;6.13;;;6.90;99.90;;;;;;4983262;28;20411;-78
2021/10/15 06:46:53;;;;;;;10.70;5.60;;;6.90;99.90;;;;;;4983263;28;20030;-78
2021/10/15 06:49:19;;;;;;;13.13;5.80;;;7.00;99.90;;;;;;4986731;28;20027;-78
2021/10/15 06:51:46;;;;;;;9.03;5.40;;;7.00;99.90;;;;;;5009343;28;20062;-79
2021/10/15 06:54:12;;;;;;;11.83;6.20;;;7.00;99.90;;;;;;4980310;28;20044;-79
2021/10/15 06:56:38;;;;;;;13.33;6.77;;;7.00;99.90;;;;;;4994226;28;20031;-79
2021/10/15 06:59:04;;;;;;;10.13;6.30;;;7.00;99.90;;;;;;4993679;28;20030;-80
2021/10/15 07:01:30;;;;;;;13.20;6.20;;;7.00;99.90;;;;;;4992026;28;20030;-79
2021/10/15 07:03:57;;;;;;;10.57;6.00;;;7.00;99.90;;;;;;4993978;28;20072;-78
2021/10/15 07:06:23;;;;;;;12.10;6.47;;;7.00;99.90;;;;;;4994625;28;20093;-78
2021/10/15 07:08:49;;;;;;;14.17;7.00;;;7.00;99.90;;;;;;4986847;28;20027;-78
2021/10/15 07:11:16;;;;;;;11.53;6.17;;;7.10;99.90;;;;;;4977726;28;20169;-79
2021/10/15 07:13:42;;;;;;;13.10;6.20;;;7.00;99.90;;;;;;4975232;28;20037;-79
2021/10/15 07:16:10;;;;;;;10.07;6.23;;;7.10;99.90;;;;;;4986000;28;20031;-79
2021/10/15 07:18:38;;;;;;;9.20;5.73;;;7.10;99.90;;;;;;4985032;28;20033;-78
2021/10/15 07:21:08;;;;;;;12.05;5.85;;;7.20;99.90;;;;;;4987503;28;20030;-82
2021/10/15 07:23:34;;;;;;;12.73;6.47;;;7.20;99.90;;;;;;5001248;28;20038;-78
2021/10/15 07:26:00;;;;;;;13.90;6.20;;;7.20;99.90;;;;;;4984609;28;20046;-78
2021/10/15 07:28:27;;;;;;;11.90;6.45;;;7.20;99.90;;;;;;4975477;28;20033;-79
2021/10/15 07:30:53;;;;;;;14.85;6.45;;;7.30;99.90;;;;;;4987828;28;20038;-78
2021/10/15 07:33:20;;;;;;;11.68;6.38;;;7.30;99.90;;;;;;4972891;28;20034;-78
2021/10/15 07:35:45;;;;;;;12.57;6.40;;;7.30;99.90;;;;;;4995013;28;20031;-79
2021/10/15 07:38:11;;;;;;;14.13;6.57;;;7.40;99.90;;;;;;4988320;28;20085;-79
2021/10/15 07:40:37;;;;;;;11.35;5.90;;;7.40;99.90;;;;;;4992495;28;20458;-79
2021/10/15 07:43:02;;;;;;;13.20;6.22;;;7.50;99.90;;;;;;4987671;28;20035;-79
2021/10/15 07:45:28;;;;;;;11.38;6.18;;;7.50;99.90;;;;;;4996602;28;20026;-78
2021/10/15 07:47:55;;;;;;;15.50;6.55;;;7.60;99.90;;;;;;4984267;28;20042;-77
2021/10/15 07:50:21;;;;;;;13.80;6.65;;;7.60;99.90;;;;;;4990551;28;20041;-77
2021/10/15 07:52:48;;;;;;;10.60;6.60;;;7.70;99.90;;;;;;4980525;28;20498;-77
2021/10/15 07:55:13;;;;;;;13.10;6.63;;;7.70;99.90;;;;;;4992394;28;20022;-77
2021/10/15 07:57:39;;;;;;;13.90;6.72;;;7.80;99.90;;;;;;4984679;28;20046;-78
2021/10/15 08:00:07;;;;;;;14.93;7.03;;;7.80;99.90;;;;;;4999650;28;20467;-77
2021/10/15 08:02:33;;;;;;;13.38;5.93;;;7.80;99.90;;;;;;4988426;28;20037;-78
2021/10/15 08:04:59;;;;;;;9.88;5.68;;;7.80;99.90;;;;;;4986727;28;20027;-78
2021/10/15 08:07:25;;;;;;;10.45;5.88;;;7.80;99.90;;;;;;4953583;28;20459;-83
2021/10/15 08:09:51;;;;;;;13.82;6.00;;;7.80;99.90;;;;;;4961483;28;20029;-79
2021/10/15 08:12:16;;;;;;;14.63;6.32;;;7.90;99.90;;;;;;4959652;28;20027;-84
2021/10/15 08:14:42;;;;;;;10.48;6.20;;;7.90;99.90;;;;;;4946738;29;20031;-81
2021/10/15 08:17:08;;;;;;;12.45;6.13;;;7.90;99.90;;;;;;4948975;28;20391;-83
2021/10/15 08:19:33;;;;;;;11.13;6.00;;;8.00;99.80;;;;;;4943104;28;20109;-78
2021/10/15 08:21:59;;;;;;;15.73;6.20;;;8.10;99.90;;;;;;4970834;28;20114;-80
2021/10/15 08:24:24;;;;;;;9.50;5.40;;;8.10;99.90;;;;;;4944164;29;20035;-81
2021/10/15 08:26:51;;;;;;;13.57;6.28;;;8.20;99.90;;;;;;4954279;29;20027;-82
2021/10/15 08:29:18;;;;;;;11.57;5.78;;;8.30;99.90;;;;;;4966180;28;20035;-80
2021/10/15 08:31:43;;;;;;;10.32;5.43;;;8.30;99.30;;;;;;4966725;28;20465;-83
2021/10/15 08:34:10;;;;;;;10.55;5.70;;;8.40;99.70;;;;;;4937692;28;20038;-80
2021/10/15 08:36:38;;;;;;;10.15;5.60;;;8.50;99.20;;;;;;4960774;28;20026;-82
2021/10/15 08:39:05;;;;;;;10.75;5.63;;;8.50;99.00;;;;;;4958100;28;20035;-81
2021/10/15 08:41:31;;;;;;;10.70;5.15;;;8.60;99.40;;;;;;4974954;28;20035;-81
2021/10/15 08:43:57;;;;;;;8.23;5.05;;;8.60;99.10;;;;;;4977624;28;20046;-82
2021/10/15 08:46:23;;;;;;;8.55;5.90;;;8.70;99.00;;;;;;4977433;28;20094;-80
2021/10/15 08:48:51;;;;;;;9.13;5.03;;;8.80;99.10;;;;;;4977971;28;20062;-82
2021/10/15 08:51:19;;;;;;;9.35;5.55;;;8.90;99.10;;;;;;4968470;28;20457;-78
2021/10/15 08:53:47;;;;;;;8.73;4.90;;;9.00;99.00;;;;;;4976581;28;20054;-84
2021/10/15 08:56:15;;;;;;;9.80;5.05;;;9.10;99.20;;;;;;4945423;29;20102;-78
2021/10/15 08:58:47;;;;;;;14.30;5.03;;;9.20;99.20;;;;;;4962241;28;20033;-86
2021/10/15 09:01:13;;;;;;;7.78;5.47;;;9.30;99.10;;;;;;4947744;28;20042;-85
2021/10/15 09:03:42;;;;;;;8.23;4.85;;;9.40;98.50;;;;;;4959698;28;20085;-87
2021/10/15 09:06:10;;;;;;;13.70;5.20;;;9.40;98.20;;;;;;4972084;28;20050;-86
2021/10/15 09:08:50;;;;;;;7.95;4.60;;;9.50;98.20;;;;;;4976630;28;20027;-87
2021/10/15 09:11:23;;;;;;;7.80;4.50;;;9.50;98.10;;;;;;4988037;28;20031;-86
2021/10/15 09:13:49;;;;;;;10.10;4.85;;;9.70;98.30;;;;;;4981721;28;20384;-88
2021/10/15 09:16:15;;;;;;;7.32;4.38;;;9.70;98.10;;;;;;4988007;28;20031;-85
2021/10/15 09:18:44;;;;;;;9.98;4.32;;;9.80;98.10;;;;;;4988197;28;20022;-84
2021/10/15 09:21:17;;;;;;;6.07;4.03;;;9.90;97.90;;;;;;4987005;28;20034;-85
2021/10/15 09:23:50;;;;;;;6.45;4.30;;;10.00;97.50;;;;;;4990008;28;20031;-83
2021/10/15 09:26:17;;;;;;;8.23;4.22;;;10.10;97.60;;;;;;4984329;28;20035;-88
2021/10/15 09:28:47;;;;;;;7.40;4.18;;;10.20;97.50;;;;;;4987363;28;20077;-88
2021/10/15 09:31:14;;;;;;;7.07;3.97;;;10.30;97.10;;;;;;4995210;28;20037;-88
2021/10/15 09:33:57;;;;;;;7.55;3.95;;;10.40;97.10;;;;;;4995230;28;20031;-88
2021/10/15 09:36:23;;;;;;;6.63;4.07;;;10.50;97.40;;;;;;4995378;28;20046;-88
2021/10/15 09:38:50;;;;;;;10.70;4.07;;;10.50;96.80;;;;;;4990412;28;20030;-82
2021/10/15 09:41:38;;;;;;;5.75;3.53;;;10.60;96.50;;;;;;4989959;28;20035;-80
2021/10/15 09:44:31;;;;;;;7.05;3.50;;;10.70;96.40;;;;;;4988483;28;20069;-84
2021/10/15 09:47:13;;;;;;;8.70;3.67;;;10.70;95.90;;;;;;4992540;28;20023;-83
2021/10/15 09:49:56;;;;;;;6.68;3.33;;;10.80;95.90;;;;;;4988818;28;20054;-82
2021/10/15 09:52:28;;;;;;;7.68;3.25;;;10.90;95.70;;;;;;4980155;28;20037;-84
2021/10/15 09:54:55;;;;;;;4.90;3.08;;;11.00;95.50;;;;;;4990037;28;20530;-88
2021/10/15 09:57:33;;;;;;;4.82;3.10;;;11.00;95.30;;;;;;4986080;28;20399;-84
2021/10/15 09:59:59;;;;;;;6.78;3.15;;;11.20;95.10;;;;;;4994467;28;20022;-84
2021/10/15 10:02:26;;;;;;;6.47;4.10;;;11.30;94.60;;;;;;4985079;28;20106;-88
2021/10/15 10:04:55;;;;;;;5.95;3.35;;;11.50;94.40;;;;;;4990012;28;20027;-88
2021/10/15 10:07:21;;;;;;;7.03;4.00;;;11.60;94.00;;;;;;4984082;28;20039;-90
2021/10/15 10:09:47;;;;;;;10.23;4.25;;;11.60;93.60;;;;;;4991559;28;20467;-85
2021/10/15 10:12:13;;;;;;;7.75;3.50;;;11.70;93.50;;;;;;4993906;28;20027;-83
2021/10/15 10:14:39;;;;;;;7.30;3.60;;;11.60;93.10;;;;;;4979344;28;20490;-83
2021/10/15 10:17:08;;;;;;;6.15;3.55;;;11.60;93.10;;;;;;4995718;28;20473;-86
2021/10/15 10:19:36;;;;;;;6.57;3.08;;;11.60;93.10;;;;;;4989545;28;20038;-84
2021/10/15 10:22:03;;;;;;;5.80;3.22;;;11.70;93.20;;;;;;4984367;28;20037;-78
2021/10/15 10:24:32;;;;;;;5.32;3.00;;;11.70;92.60;;;;;;4989420;28;20089;-78
2021/10/15 10:26:58;;;;;;;4.55;3.22;;;11.80;92.80;;;;;;4994003;28;20098;-82
2021/10/15 10:29:24;;;;;;;7.15;3.55;;;11.90;92.70;;;;;;4989422;28;20022;-83
2021/10/15 10:31:53;;;;;;;7.68;4.60;;;12.10;92.70;;;;;;4994110;28;20030;-84
2021/10/15 10:34:27;;;;;;;7.65;3.88;;;12.20;91.80;;;;;;4986285;28;20060;-89
2021/10/15 10:37:08;;;;;;;7.50;3.70;;;12.40;91.30;;;;;;4979342;28;20073;-91
2021/10/15 10:39:35;;;;;;;4.50;3.10;;;12.50;90.70;;;;;;4986697;28;20173;-88
2021/10/15 10:42:15;;;;;;;5.95;3.17;;;12.60;91.30;;;;;;4994437;28;20034;-90
2021/10/15 10:44:49;;;;;;;5.38;2.40;;;12.70;91.20;;;;;;4988998;28;20093;-89
2021/10/15 10:47:28;;;;;;;8.85;2.60;;;12.90;91.30;;;;;;5001444;28;20030;-88
2021/10/15 10:50:06;;;;;;;5.40;2.78;;;12.90;91.20;;;;;;4989636;28;20110;-89
2021/10/15 10:52:34;;;;;;;5.07;3.00;;;13.00;91.20;;;;;;5007028;28;20034;-82
2021/10/15 10:54:59;;;;;;;6.05;2.55;;;13.10;91.00;;;;;;4979361;28;20514;-85
2021/10/15 10:57:31;;;;;;;3.63;2.28;;;13.20;91.00;;;;;;4981429;28;20038;-84
2021/10/15 11:00:22;;;;;;;5.22;2.50;;;13.30;91.30;;;;;;4978848;28;20042;-86
2021/10/15 11:02:55;;;;;;;3.28;2.22;;;13.40;89.00;;;;;;4984530;28;20114;-84
2021/10/15 11:05:41;;;;;;;4.28;2.50;;;13.40;89.70;;;;;;4978043;28;20075;-86
2021/10/15 11:08:25;;;;;;;6.55;2.47;;;13.50;89.80;;;;;;4980804;28;20105;-87
2021/10/15 11:11:19;;;;;;;4.75;2.42;;;13.50;89.80;;;;;;4988627;28;20027;-86
2021/10/15 11:13:45;;;;;;;4.85;2.85;;;13.50;88.20;;;;;;4977501;28;20049;-84
2021/10/15 11:16:22;;;;;;;4.80;2.55;;;13.50;88.20;;;;;;4973909;28;20118;-84
2021/10/15 11:18:48;;;;;;;3.95;2.75;;;13.50;88.50;;;;;;4986137;28;20030;-83
2021/10/15 11:21:14;;;;;;;5.07;2.90;;;13.50;89.30;;;;;;4986570;28;20038;-83
2021/10/15 11:23:40;;;;;;;3.72;2.92;;;13.60;89.40;;;;;;4985447;28;20038;-82
2021/10/15 11:26:06;;;;;;;5.10;2.60;;;13.60;89.00;;;;;;4985599;28;20031;-83
2021/10/15 11:28:33;;;;;;;7.85;4.00;;;13.70;89.30;;;;;;4990135;28;20029;-80
2021/10/15 11:30:59;;;;;;;5.32;3.17;;;13.70;87.60;;;;;;4987369;28;20088;-80
2021/10/15 11:33:26;;;;;;;5.70;3.58;;;13.70;87.50;;;;;;4991203;28;20053;-81
2021/10/15 11:35:54;;;;;;;6.13;3.60;;;13.80;88.70;;;;;;4988268;28;20067;-81
2021/10/15 11:38:27;;;;;;;5.85;3.25;;;13.80;86.90;;;;;;4989120;28;20034;-80
2021/10/15 11:40:57;;;;;;;7.88;3.15;;;13.80;87.20;;;;;;4984003;28;20109;-82
2021/10/15 11:43:34;;;;;;;6.05;3.75;;;13.90;86.60;;;;;;4982545;28;20030;-83
2021/10/15 11:46:09;;;;;;;5.38;3.10;;;13.90;87.00;;;;;;4978225;28;20058;-86
2021/10/15 11:48:44;;;;;;;6.10;2.88;;;13.90;87.50;;;;;;4979043;28;20027;-87
2021/10/15 11:51:14;;;;;;;6.97;3.63;;;14.00;87.90;;;;;;4981558;28;20031;-82
2021/10/15 11:54:03;;;;;;;6.13;3.72;;;13.90;86.70;;;;;;4991129;28;20378;-82
2021/10/15 11:56:34;;;;;;;4.95;3.30;;;13.90;86.30;;;;;;4970663;28;20060;-81
2021/10/15 11:59:04;;;;;;;8.13;3.30;;;13.90;86.40;;;;;;4985896;28;20362;-82
2021/10/15 12:01:32;;;;;;;5.82;3.03;;;13.90;86.80;;;;;;4992021;28;20109;-82
2021/10/15 12:04:07;;;;;;;6.55;3.60;;;14.00;87.00;;;;;;4986910;28;20030;-82
2021/10/15 12:06:41;;;;;;;6.57;2.97;;;13.90;86.90;;;;;;4988544;28;20077;-83
2021/10/15 12:09:10;;;;;;;4.78;3.22;;;13.90;87.80;;;;;;4987827;28;20203;-81
2021/10/15 12:11:37;;;;;;;5.25;2.88;;;13.90;88.60;;;;;;4988612;28;20031;-83
2021/10/15 12:14:05;;;;;;;5.20;2.90;;;14.10;88.10;;;;;;4993369;28;20079;-82
2021/10/15 12:16:33;;;;;;;6.63;3.65;;;14.20;87.20;;;;;;4993480;28;20033;-82
2021/10/15 12:19:13;;;;;;;6.70;3.53;;;14.20;86.60;;;;;;4990432;28;20026;-82
2021/10/15 12:21:44;;;;;;;4.15;2.70;;;14.20;86.10;;;;;;4989404;28;20034;-84
2021/10/15 12:24:13;;;;;;;4.40;3.20;;;14.30;86.60;;;;;;4989617;28;20097;-83
2021/10/15 12:26:39;;;;;;;5.88;2.65;;;14.50;86.00;;;;;;4987149;28;20690;-84
2021/10/15 12:29:23;;;;;;;4.88;2.53;;;14.70;85.10;;;;;;4988094;28;20490;-85
2021/10/15 12:32:05;;;;;;;4.05;2.92;;;14.90;85.70;;;;;;4994590;28;20057;-85
2021/10/15 12:34:31;;;;;;;;;;;14.90;84.80;;;;;;4992533;28;20483;-83
2021/10/15 12:37:07;;;;;;;3.58;2.22;;;14.90;83.60;;;;;;4993817;28;20135;-83
2021/10/15 12:39:32;;;;;;;4.25;2.88;;;14.90;84.50;;;;;;4989950;28;20026;-84
2021/10/15 12:41:58;;;;;;;5.45;2.53;;;15.10;84.10;;;;;;4990631;28;20104;-83
2021/10/15 12:44:30;;;;;;;5.38;2.72;;;15.30;82.70;;;;;;4992050;28;20030;-79
2021/10/15 12:47:05;;;;;;;5.53;2.88;;;15.50;82.30;;;;;;4992132;28;20027;-84
2021/10/15 12:49:58;;;;;;;6.93;2.70;;;15.50;82.00;;;;;;4989757;28;20490;-78
2021/10/15 12:52:38;;;;;;;6.47;2.75;;;15.70;80.50;;;;;;4996325;28;20486;-78
2021/10/15 12:55:16;;;;;;;5.78;2.85;;;15.50;80.90;;;;;;4992465;28;20066;-79
2021/10/15 12:57:42;;;;;;;5.95;2.92;;;15.40;81.40;;;;;;4995916;28;20357;-79
2021/10/15 13:00:19;;;;;;;5.00;2.90;;;15.20;81.80;;;;;;5006280;28;20117;-79
2021/10/15 13:03:00;;;;;;;2.83;2.10;;;15.10;82.40;;;;;;4979198;28;20077;-78
2021/10/15 13:05:27;;;;;;;5.90;2.38;;;15.00;83.70;;;;;;4983918;28;20042;-80
2021/10/15 13:07:53;;;;;;;4.95;2.00;;;15.00;83.90;;;;;;4987543;28;20121;-80
2021/10/15 13:10:21;;;;;;;7.13;2.75;;;15.00;84.20;;;;;;4983666;28;20023;-80
2021/10/15 13:12:49;;;;;;;12.80;2.97;;;14.90;83.80;;;;;;4987006;28;20046;-80